createdAt,value
2023-01-12T00:03:38.768Z,0.00
2023-01-12T00:08:38.700Z,0.00
2023-01-12T00:13:38.628Z,0.00
2023-01-12T00:18:38.566Z,0.00
2023-01-12T00:23:38.492Z,0.00
2023-01-12T00:28:38.417Z,0.00
2023-01-12T00:33:38.359Z,0.00
2023-01-12T00:38:38.292Z,0.00
2023-01-12T00:43:38.223Z,0.00
2023-01-12T00:48:38.156Z,0.00
2023-01-12T00:53:38.090Z,0.00
2023-01-12T00:58:38.011Z,0.00
2023-01-12T01:03:37.951Z,0.00
2023-01-12T01:08:37.888Z,0.00
2023-01-12T01:13:37.826Z,0.00
2023-01-12T01:18:37.752Z,0.00
2023-01-12T01:23:37.687Z,0.00
2023-01-12T01:28:37.619Z,0.00
2023-01-12T01:33:37.563Z,0.00
2023-01-12T01:38:37.489Z,0.00
2023-01-12T01:43:37.411Z,0.00
2023-01-12T01:48:37.337Z,0.00
2023-01-12T01:53:37.276Z,0.00
2023-01-12T01:58:37.208Z,0.00
2023-01-12T02:03:37.145Z,0.00
2023-01-12T02:08:37.074Z,0.00
2023-01-12T02:13:37.014Z,0.00
2023-01-12T02:18:36.947Z,0.00
2023-01-12T02:23:36.881Z,0.00
2023-01-12T02:28:36.809Z,0.00
2023-01-12T02:33:36.748Z,0.00
2023-01-12T02:38:36.684Z,0.00
2023-01-12T02:43:36.632Z,0.00
2023-01-12T02:48:36.543Z,0.00
2023-01-12T02:53:36.485Z,0.00
2023-01-12T02:58:36.410Z,0.00
2023-01-12T03:03:36.366Z,0.00
2023-01-12T03:08:36.276Z,0.00
2023-01-12T03:13:36.230Z,0.00
2023-01-12T03:18:36.144Z,0.00
2023-01-12T03:23:36.116Z,0.00
2023-01-12T03:28:36.012Z,0.00
2023-01-12T03:33:35.961Z,0.00
2023-01-12T03:38:35.880Z,0.00
2023-01-12T03:43:35.819Z,0.00
2023-01-12T03:48:35.742Z,0.00
2023-01-12T03:53:35.685Z,0.00
2023-01-12T03:58:35.611Z,0.00
2023-01-12T04:03:35.610Z,0.00
2023-01-12T04:08:35.478Z,0.00
2023-01-12T04:13:35.414Z,0.00
2023-01-12T04:18:35.353Z,0.00
2023-01-12T04:23:35.288Z,0.00
2023-01-12T04:28:35.207Z,0.00
2023-01-12T04:33:35.147Z,0.00
2023-01-12T04:38:35.075Z,0.00
2023-01-12T04:43:35.017Z,0.00
2023-01-12T04:48:34.945Z,0.00
2023-01-12T04:53:34.917Z,0.00
2023-01-12T04:58:34.814Z,0.00
2023-01-12T05:03:34.753Z,0.00
2023-01-12T05:08:34.683Z,0.00
2023-01-12T05:13:34.616Z,0.00
2023-01-12T05:18:34.550Z,0.00
2023-01-12T05:23:34.480Z,0.00
2023-01-12T05:28:34.424Z,0.00
2023-01-12T05:33:34.351Z,0.00
2023-01-12T05:38:34.287Z,0.00
2023-01-12T05:43:34.214Z,0.00
2023-01-12T05:48:34.146Z,0.00
2023-01-12T05:53:34.080Z,0.00
2023-01-12T05:58:34.009Z,0.00
2023-01-12T06:03:33.949Z,0.00
2023-01-12T06:08:33.878Z,0.00
2023-01-12T06:13:33.814Z,0.00
2023-01-12T06:18:33.743Z,0.00
2023-01-12T06:23:35.544Z,0.00
2023-01-12T06:28:33.870Z,0.00
2023-01-12T06:33:33.801Z,0.00
2023-01-12T06:38:33.495Z,4.00
2023-01-12T06:43:33.415Z,4.00
2023-01-12T06:48:39.139Z,4.00
2023-01-12T06:53:33.283Z,12.00
2023-01-12T06:58:33.217Z,28.00
2023-01-12T07:03:33.151Z,52.00
2023-01-12T07:08:33.073Z,88.00
2023-01-12T07:13:33.015Z,148.00
2023-01-12T07:18:32.951Z,212.00
2023-01-12T07:23:32.883Z,280.00
2023-01-12T07:28:32.807Z,360.00
2023-01-12T07:33:32.763Z,304.00
2023-01-12T07:38:32.698Z,348.00
2023-01-12T07:43:32.616Z,428.00
2023-01-12T07:48:32.560Z,476.00
2023-01-12T07:53:32.484Z,584.00
2023-01-12T07:58:32.408Z,712.00
2023-01-12T08:03:32.363Z,860.00
2023-01-12T08:08:32.279Z,1000.00
2023-01-12T08:13:32.219Z,1032.00
2023-01-12T08:18:32.146Z,1044.00
2023-01-12T08:23:32.117Z,1236.00
2023-01-12T08:28:32.020Z,1312.00
2023-01-12T08:33:31.963Z,1496.00
2023-01-12T08:38:31.881Z,1508.00
2023-01-12T08:43:31.833Z,1648.00
2023-01-12T08:48:31.758Z,1736.00
2023-01-12T08:53:31.700Z,1896.00
2023-01-12T08:58:31.620Z,2264.00
2023-01-12T09:03:31.557Z,2088.00
2023-01-12T09:08:31.483Z,2028.00
2023-01-12T09:13:31.425Z,2256.00
2023-01-12T09:18:31.367Z,2276.00
2023-01-12T09:23:31.300Z,2248.00
2023-01-12T09:28:31.217Z,2964.00
2023-01-12T09:33:31.163Z,3404.00
2023-01-12T09:38:31.093Z,3732.00
2023-01-12T09:43:31.041Z,4264.00
2023-01-12T09:48:30.959Z,5096.00
2023-01-12T09:53:30.906Z,8916.00
2023-01-12T09:58:30.820Z,5404.00
2023-01-12T10:03:30.852Z,4496.00
2023-01-12T10:08:30.691Z,4620.00
2023-01-12T10:13:30.637Z,4172.00
2023-01-12T10:18:30.550Z,3604.00
2023-01-12T10:23:30.505Z,4068.00
2023-01-12T10:28:30.437Z,4100.00
2023-01-12T10:33:30.369Z,4032.00
2023-01-12T10:38:30.280Z,3468.00
2023-01-12T10:43:30.233Z,3288.00
2023-01-12T10:48:30.148Z,3684.00
2023-01-12T10:53:30.102Z,3488.00
2023-01-12T10:58:30.014Z,3068.00
2023-01-12T11:03:29.959Z,2956.00
2023-01-12T11:08:29.880Z,2664.00
2023-01-12T11:13:29.820Z,2664.00
2023-01-12T11:18:29.784Z,2916.00
2023-01-12T11:23:29.688Z,3432.00
2023-01-12T11:28:29.613Z,3488.00
2023-01-12T11:33:29.554Z,4416.00
2023-01-12T11:38:29.478Z,4516.00
2023-01-12T11:43:29.427Z,5576.00
2023-01-12T11:48:29.342Z,5488.00
2023-01-12T11:53:29.347Z,5352.00
2023-01-12T11:58:29.211Z,6112.00
2023-01-12T12:03:29.310Z,6596.00
2023-01-12T12:08:29.083Z,5796.00
2023-01-12T12:13:29.035Z,4828.00
2023-01-12T12:18:28.942Z,3604.00
2023-01-12T12:23:28.886Z,3080.00
2023-01-12T12:28:28.811Z,3276.00
2023-01-12T12:33:28.751Z,3368.00
2023-01-12T12:38:28.677Z,3760.00
2023-01-12T12:43:28.617Z,4864.00
2023-01-12T12:48:28.597Z,4860.00
2023-01-12T12:53:28.484Z,3440.00
2023-01-12T12:58:28.412Z,2592.00
2023-01-12T13:03:28.349Z,2268.00
2023-01-12T13:08:28.275Z,1844.00
2023-01-12T13:13:28.217Z,1576.00
2023-01-12T13:18:28.143Z,1584.00
2023-01-12T13:23:28.082Z,1580.00
2023-01-12T13:28:28.008Z,1544.00
2023-01-12T13:33:27.953Z,1540.00
2023-01-12T13:38:27.883Z,1260.00
2023-01-12T13:43:27.818Z,1072.00
2023-01-12T13:48:27.750Z,1140.00
2023-01-12T13:53:28.840Z,1020.00
2023-01-12T13:58:27.615Z,936.00
2023-01-12T14:03:27.545Z,928.00
2023-01-12T14:08:27.798Z,1020.00
2023-01-12T14:13:27.431Z,1240.00
2023-01-12T14:18:27.350Z,988.00
2023-01-12T14:23:27.284Z,872.00
2023-01-12T14:28:27.203Z,704.00
2023-01-12T14:33:27.147Z,536.00
2023-01-12T14:38:27.079Z,376.00
2023-01-12T14:43:27.009Z,304.00
2023-01-12T14:48:26.935Z,248.00
2023-01-12T14:53:26.875Z,192.00
2023-01-12T14:58:28.121Z,188.00
2023-01-12T15:03:35.428Z,176.00
2023-01-12T15:08:27.700Z,192.00
2023-01-12T15:13:26.604Z,196.00
2023-01-12T15:18:26.547Z,180.00
2023-01-12T15:23:26.477Z,140.00
2023-01-12T15:28:26.407Z,92.00
2023-01-12T15:33:26.339Z,56.00
2023-01-12T15:38:26.281Z,40.00
2023-01-12T15:43:26.196Z,20.00
2023-01-12T15:48:26.194Z,8.00
2023-01-12T15:53:26.064Z,4.00
2023-01-12T15:58:26.024Z,4.00
2023-01-12T16:03:54.917Z,0.00
2023-01-12T16:08:26.929Z,0.00
2023-01-12T16:13:25.794Z,0.00
2023-01-12T16:18:25.745Z,0.00
2023-01-12T16:23:25.665Z,0.00
2023-01-12T16:28:25.603Z,0.00
2023-01-12T16:33:25.528Z,0.00
2023-01-12T16:38:25.466Z,0.00
2023-01-12T16:43:25.389Z,0.00
2023-01-12T16:48:25.329Z,0.00
2023-01-12T16:53:25.261Z,0.00
2023-01-12T16:58:25.199Z,0.00
2023-01-12T17:03:25.207Z,0.00
2023-01-12T17:08:25.075Z,0.00
2023-01-12T17:13:25.008Z,0.00
2023-01-12T17:18:24.943Z,0.00
2023-01-12T17:23:24.854Z,0.00
2023-01-12T17:28:24.822Z,0.00
2023-01-12T17:33:24.720Z,0.00
2023-01-12T17:38:24.671Z,0.00
2023-01-12T17:43:24.586Z,0.00
2023-01-12T17:48:24.534Z,0.00
2023-01-12T17:53:24.455Z,0.00
2023-01-12T17:58:24.399Z,0.00
2023-01-12T18:03:24.389Z,0.00
2023-01-12T18:08:24.260Z,0.00
2023-01-12T18:13:24.193Z,0.00
2023-01-12T18:18:24.124Z,0.00
2023-01-12T18:23:24.052Z,0.00
2023-01-12T18:28:24.001Z,0.00
2023-01-12T18:33:23.916Z,0.00
2023-01-12T18:38:23.858Z,0.00
2023-01-12T18:43:23.783Z,0.00
2023-01-12T18:48:23.799Z,0.00
2023-01-12T18:53:23.750Z,0.00
2023-01-12T18:58:23.798Z,0.00
2023-01-12T19:03:23.781Z,0.00
2023-01-12T19:08:23.469Z,0.00
2023-01-12T19:13:23.397Z,0.00
2023-01-12T19:18:23.320Z,0.00
2023-01-12T19:23:23.258Z,0.00
2023-01-12T19:28:23.193Z,0.00
2023-01-12T19:33:23.132Z,0.00
2023-01-12T19:38:23.047Z,0.00
2023-01-12T19:43:22.999Z,0.00
2023-01-12T19:48:22.920Z,0.00
2023-01-12T19:53:22.861Z,0.00
2023-01-12T19:58:22.791Z,0.00
2023-01-12T20:03:22.733Z,0.00
2023-01-12T20:08:22.648Z,0.00
2023-01-12T20:13:22.586Z,0.00
2023-01-12T20:18:22.526Z,0.00
2023-01-12T20:23:22.452Z,0.00
2023-01-12T20:28:22.408Z,0.00
2023-01-12T20:33:22.321Z,0.00
2023-01-12T20:38:22.255Z,0.00
2023-01-12T20:43:22.187Z,0.00
2023-01-12T20:48:22.117Z,0.00
2023-01-12T20:53:22.050Z,0.00
2023-01-12T20:58:21.998Z,0.00
2023-01-12T21:03:21.940Z,0.00
2023-01-12T21:08:21.844Z,0.00
2023-01-12T21:13:21.790Z,0.00
2023-01-12T21:18:21.711Z,0.00
2023-01-12T21:23:21.649Z,0.00
2023-01-12T21:28:21.577Z,0.00
2023-01-12T21:33:21.516Z,0.00
2023-01-12T21:38:21.445Z,0.00
2023-01-12T21:43:21.370Z,0.00
2023-01-12T21:48:21.312Z,0.00
2023-01-12T21:53:21.237Z,0.00
2023-01-12T21:58:21.213Z,0.00
2023-01-12T22:03:21.108Z,0.00
2023-01-12T22:08:21.050Z,0.00
2023-01-12T22:13:20.973Z,0.00
2023-01-12T22:18:20.940Z,0.00
2023-01-12T22:23:20.848Z,0.00
2023-01-12T22:28:20.776Z,0.00
2023-01-12T22:33:20.709Z,0.00
2023-01-12T22:38:20.640Z,0.00
2023-01-12T22:43:20.577Z,0.00
2023-01-12T22:48:20.519Z,0.00
2023-01-12T22:53:20.445Z,0.00
2023-01-12T22:58:20.381Z,0.00
2023-01-12T23:03:20.605Z,0.00
2023-01-12T23:08:20.379Z,0.00
2023-01-12T23:13:20.331Z,0.00
2023-01-12T23:18:20.271Z,0.00
2023-01-12T23:23:20.257Z,0.00
2023-01-12T23:28:20.118Z,0.00
2023-01-12T23:33:20.039Z,0.00
2023-01-12T23:38:19.986Z,0.00
2023-01-12T23:43:19.896Z,0.00
2023-01-12T23:48:19.856Z,0.00
2023-01-12T23:53:19.774Z,0.00
2023-01-12T23:58:19.707Z,0.00
